sensor_id;sensor_type;location;lat;lon;timestamp;P1;durP1;ratioP1;P2;durP2;ratioP2
55312;SDS011;46892;45.668;11.756;2023-05-24T00:01:17;5.03;;;3.97;;
55312;SDS011;46892;45.668;11.756;2023-05-24T00:03:52;5.67;;;3.67;;
55312;SDS011;46892;45.668;11.756;2023-05-24T00:06:18;10.03;;;4.07;;
55312;SDS011;46892;45.668;11.756;2023-05-24T00:08:44;7.33;;;3.97;;
55312;SDS011;46892;45.668;11.756;2023-05-24T00:11:11;5.50;;;3.80;;
55312;SDS011;46892;45.668;11.756;2023-05-24T00:13:37;9.80;;;4.10;;
55312;SDS011;46892;45.668;11.756;2023-05-24T00:16:02;5.80;;;3.63;;
55312;SDS011;46892;45.668;11.756;2023-05-24T00:18:29;6.83;;;4.07;;
55312;SDS011;46892;45.668;11.756;2023-05-24T00:20:57;5.70;;;3.60;;
55312;SDS011;46892;45.668;11.756;2023-05-24T00:23:26;8.43;;;4.10;;
55312;SDS011;46892;45.668;11.756;2023-05-24T00:25:51;8.97;;;4.23;;
55312;SDS011;46892;45.668;11.756;2023-05-24T00:28:17;7.43;;;4.10;;
55312;SDS011;46892;45.668;11.756;2023-05-24T00:30:43;4.77;;;3.60;;
55312;SDS011;46892;45.668;11.756;2023-05-24T00:33:09;4.73;;;3.73;;
55312;SDS011;46892;45.668;11.756;2023-05-24T00:35:34;5.60;;;3.60;;
55312;SDS011;46892;45.668;11.756;2023-05-24T00:38:00;6.30;;;4.03;;
55312;SDS011;46892;45.668;11.756;2023-05-24T00:40:26;5.47;;;3.60;;
55312;SDS011;46892;45.668;11.756;2023-05-24T00:42:51;8.50;;;3.67;;
55312;SDS011;46892;45.668;11.756;2023-05-24T00:45:17;5.87;;;3.57;;
55312;SDS011;46892;45.668;11.756;2023-05-24T00:47:43;4.97;;;3.60;;
55312;SDS011;46892;45.668;11.756;2023-05-24T00:50:09;6.20;;;4.30;;
55312;SDS011;46892;45.668;11.756;2023-05-24T00:52:39;6.93;;;4.07;;
55312;SDS011;46892;45.668;11.756;2023-05-24T00:55:06;5.60;;;4.20;;
55312;SDS011;46892;45.668;11.756;2023-05-24T00:57:32;8.60;;;4.03;;
55312;SDS011;46892;45.668;11.756;2023-05-24T01:00:01;6.70;;;4.40;;
55312;SDS011;46892;45.668;11.756;2023-05-24T01:02:29;9.63;;;4.17;;
55312;SDS011;46892;45.668;11.756;2023-05-24T01:04:54;6.17;;;4.03;;
55312;SDS011;46892;45.668;11.756;2023-05-24T01:10:16;6.93;;;3.92;;
55312;SDS011;46892;45.668;11.756;2023-05-24T01:18:30;7.07;;;4.37;;
55312;SDS011;46892;45.668;11.756;2023-05-24T01:26:57;7.10;;;5.10;;
55312;SDS011;46892;45.668;11.756;2023-05-24T01:29:32;8.83;;;4.83;;
55312;SDS011;46892;45.668;11.756;2023-05-24T01:31:59;8.83;;;6.23;;
55312;SDS011;46892;45.668;11.756;2023-05-24T01:34:25;8.77;;;4.90;;
55312;SDS011;46892;45.668;11.756;2023-05-24T01:36:51;6.90;;;4.90;;
55312;SDS011;46892;45.668;11.756;2023-05-24T01:39:17;9.60;;;4.97;;
55312;SDS011;46892;45.668;11.756;2023-05-24T01:44:42;11.93;;;7.90;;
55312;SDS011;46892;45.668;11.756;2023-05-24T01:52:51;9.30;;;6.57;;
55312;SDS011;46892;45.668;11.756;2023-05-24T01:55:17;10.10;;;5.70;;
55312;SDS011;46892;45.668;11.756;2023-05-24T01:57:45;6.87;;;4.90;;
55312;SDS011;46892;45.668;11.756;2023-05-24T02:00:14;8.55;;;5.35;;
55312;SDS011;46892;45.668;11.756;2023-05-24T02:02:42;8.03;;;4.47;;
55312;SDS011;46892;45.668;11.756;2023-05-24T02:05:08;11.93;;;5.87;;
55312;SDS011;46892;45.668;11.756;2023-05-24T02:07:35;8.27;;;5.00;;
55312;SDS011;46892;45.668;11.756;2023-05-24T02:10:00;11.73;;;5.43;;
55312;SDS011;46892;45.668;11.756;2023-05-24T02:12:26;7.33;;;4.43;;
55312;SDS011;46892;45.668;11.756;2023-05-24T02:14:52;7.87;;;4.57;;
55312;SDS011;46892;45.668;11.756;2023-05-24T02:17:18;7.50;;;4.60;;
55312;SDS011;46892;45.668;11.756;2023-05-24T02:19:44;7.13;;;4.60;;
55312;SDS011;46892;45.668;11.756;2023-05-24T02:22:09;8.10;;;4.40;;
55312;SDS011;46892;45.668;11.756;2023-05-24T02:24:36;6.83;;;4.83;;
55312;SDS011;46892;45.668;11.756;2023-05-24T02:27:04;6.97;;;4.53;;
55312;SDS011;46892;45.668;11.756;2023-05-24T02:29:30;7.03;;;4.53;;
55312;SDS011;46892;45.668;11.756;2023-05-24T02:31:56;6.20;;;4.37;;
55312;SDS011;46892;45.668;11.756;2023-05-24T02:34:22;8.03;;;4.73;;
55312;SDS011;46892;45.668;11.756;2023-05-24T02:36:48;10.17;;;4.23;;
55312;SDS011;46892;45.668;11.756;2023-05-24T02:39:14;6.13;;;4.20;;
55312;SDS011;46892;45.668;11.756;2023-05-24T02:41:40;6.57;;;4.57;;
55312;SDS011;46892;45.668;11.756;2023-05-24T02:44:06;8.77;;;4.80;;
55312;SDS011;46892;45.668;11.756;2023-05-24T02:46:32;7.80;;;4.77;;
55312;SDS011;46892;45.668;11.756;2023-05-24T02:48:57;7.20;;;5.10;;
55312;SDS011;46892;45.668;11.756;2023-05-24T02:51:23;7.73;;;4.70;;
55312;SDS011;46892;45.668;11.756;2023-05-24T02:53:49;9.70;;;4.80;;
55312;SDS011;46892;45.668;11.756;2023-05-24T02:56:15;8.23;;;4.53;;
55312;SDS011;46892;45.668;11.756;2023-05-24T02:58:41;8.43;;;4.77;;
55312;SDS011;46892;45.668;11.756;2023-05-24T03:01:09;5.40;;;4.20;;
55312;SDS011;46892;45.668;11.756;2023-05-24T03:03:36;6.67;;;4.40;;
55312;SDS011;46892;45.668;11.756;2023-05-24T03:06:02;7.17;;;4.60;;
55312;SDS011;46892;45.668;11.756;2023-05-24T03:08:28;7.03;;;4.70;;
55312;SDS011;46892;45.668;11.756;2023-05-24T03:10:54;7.17;;;4.60;;
55312;SDS011;46892;45.668;11.756;2023-05-24T03:13:19;6.33;;;4.93;;
55312;SDS011;46892;45.668;11.756;2023-05-24T03:15:45;8.47;;;4.93;;
55312;SDS011;46892;45.668;11.756;2023-05-24T03:18:11;8.13;;;5.00;;
55312;SDS011;46892;45.668;11.756;2023-05-24T03:20:36;10.73;;;5.93;;
55312;SDS011;46892;45.668;11.756;2023-05-24T03:23:02;8.80;;;5.30;;
55312;SDS011;46892;45.668;11.756;2023-05-24T03:25:27;7.90;;;6.13;;
55312;SDS011;46892;45.668;11.756;2023-05-24T03:27:53;9.23;;;6.13;;
55312;SDS011;46892;45.668;11.756;2023-05-24T03:30:19;8.30;;;6.57;;
55312;SDS011;46892;45.668;11.756;2023-05-24T03:32:44;7.50;;;6.13;;
55312;SDS011;46892;45.668;11.756;2023-05-24T03:35:10;8.50;;;6.53;;
55312;SDS011;46892;45.668;11.756;2023-05-24T03:37:36;9.87;;;6.37;;
55312;SDS011;46892;45.668;11.756;2023-05-24T03:40:02;8.43;;;6.40;;
55312;SDS011;46892;45.668;11.756;2023-05-24T03:42:29;9.87;;;6.73;;
55312;SDS011;46892;45.668;11.756;2023-05-24T03:44:54;8.30;;;6.40;;
55312;SDS011;46892;45.668;11.756;2023-05-24T03:47:20;9.80;;;6.83;;
55312;SDS011;46892;45.668;11.756;2023-05-24T03:49:46;9.43;;;6.00;;
55312;SDS011;46892;45.668;11.756;2023-05-24T03:52:11;6.80;;;5.50;;
55312;SDS011;46892;45.668;11.756;2023-05-24T03:54:37;8.60;;;6.33;;
55312;SDS011;46892;45.668;11.756;2023-05-24T03:57:03;8.10;;;6.20;;
55312;SDS011;46892;45.668;11.756;2023-05-24T03:59:28;11.37;;;6.27;;
55312;SDS011;46892;45.668;11.756;2023-05-24T04:01:55;7.70;;;6.17;;
55312;SDS011;46892;45.668;11.756;2023-05-24T04:04:20;8.80;;;6.03;;
55312;SDS011;46892;45.668;11.756;2023-05-24T04:06:46;7.50;;;5.57;;
55312;SDS011;46892;45.668;11.756;2023-05-24T04:09:13;8.53;;;6.43;;
55312;SDS011;46892;45.668;11.756;2023-05-24T04:11:39;7.57;;;6.13;;
55312;SDS011;46892;45.668;11.756;2023-05-24T04:14:05;6.97;;;5.57;;
55312;SDS011;46892;45.668;11.756;2023-05-24T04:16:31;9.27;;;6.17;;
55312;SDS011;46892;45.668;11.756;2023-05-24T04:18:58;8.00;;;5.43;;
55312;SDS011;46892;45.668;11.756;2023-05-24T04:21:28;8.43;;;6.28;;
55312;SDS011;46892;45.668;11.756;2023-05-24T04:23:54;8.63;;;6.50;;
55312;SDS011;46892;45.668;11.756;2023-05-24T04:26:25;9.20;;;6.33;;
55312;SDS011;46892;45.668;11.756;2023-05-24T04:28:52;8.10;;;5.80;;
55312;SDS011;46892;45.668;11.756;2023-05-24T04:31:17;9.47;;;6.20;;
55312;SDS011;46892;45.668;11.756;2023-05-24T04:33:44;9.17;;;6.37;;
55312;SDS011;46892;45.668;11.756;2023-05-24T04:36:10;8.97;;;6.00;;
55312;SDS011;46892;45.668;11.756;2023-05-24T04:38:36;10.40;;;7.20;;
55312;SDS011;46892;45.668;11.756;2023-05-24T04:41:03;8.87;;;6.63;;
55312;SDS011;46892;45.668;11.756;2023-05-24T04:43:32;8.23;;;6.50;;
55312;SDS011;46892;45.668;11.756;2023-05-24T04:45:58;11.73;;;6.90;;
55312;SDS011;46892;45.668;11.756;2023-05-24T04:48:24;9.00;;;6.97;;
55312;SDS011;46892;45.668;11.756;2023-05-24T04:50:50;10.03;;;6.53;;
55312;SDS011;46892;45.668;11.756;2023-05-24T04:53:16;8.17;;;6.40;;
55312;SDS011;46892;45.668;11.756;2023-05-24T04:55:43;10.67;;;6.90;;
55312;SDS011;46892;45.668;11.756;2023-05-24T04:58:08;8.37;;;6.27;;
55312;SDS011;46892;45.668;11.756;2023-05-24T05:00:34;9.03;;;6.63;;
55312;SDS011;46892;45.668;11.756;2023-05-24T05:03:00;9.57;;;6.50;;
55312;SDS011;46892;45.668;11.756;2023-05-24T05:05:25;8.70;;;6.73;;
55312;SDS011;46892;45.668;11.756;2023-05-24T05:07:51;10.67;;;6.73;;
55312;SDS011;46892;45.668;11.756;2023-05-24T05:10:17;10.73;;;6.30;;
55312;SDS011;46892;45.668;11.756;2023-05-24T05:12:42;9.10;;;6.23;;
55312;SDS011;46892;45.668;11.756;2023-05-24T05:15:08;7.73;;;6.10;;
55312;SDS011;46892;45.668;11.756;2023-05-24T05:17:35;7.97;;;5.37;;
55312;SDS011;46892;45.668;11.756;2023-05-24T05:20:01;8.07;;;5.40;;
55312;SDS011;46892;45.668;11.756;2023-05-24T05:22:28;9.10;;;5.40;;
55312;SDS011;46892;45.668;11.756;2023-05-24T05:24:54;8.73;;;5.90;;
55312;SDS011;46892;45.668;11.756;2023-05-24T05:27:20;7.83;;;5.33;;
55312;SDS011;46892;45.668;11.756;2023-05-24T05:29:46;9.73;;;5.60;;
55312;SDS011;46892;45.668;11.756;2023-05-24T05:32:11;8.50;;;5.30;;
55312;SDS011;46892;45.668;11.756;2023-05-24T05:34:37;7.83;;;5.37;;
55312;SDS011;46892;45.668;11.756;2023-05-24T05:37:02;7.90;;;4.67;;
55312;SDS011;46892;45.668;11.756;2023-05-24T05:39:28;7.03;;;5.10;;
55312;SDS011;46892;45.668;11.756;2023-05-24T05:41:56;8.30;;;5.67;;
55312;SDS011;46892;45.668;11.756;2023-05-24T05:44:21;7.47;;;5.37;;
55312;SDS011;46892;45.668;11.756;2023-05-24T05:46:47;7.67;;;5.30;;
55312;SDS011;46892;45.668;11.756;2023-05-24T05:49:13;8.10;;;5.00;;
55312;SDS011;46892;45.668;11.756;2023-05-24T05:51:40;6.73;;;5.10;;
55312;SDS011;46892;45.668;11.756;2023-05-24T05:54:05;11.10;;;5.30;;
55312;SDS011;46892;45.668;11.756;2023-05-24T05:56:38;8.23;;;5.10;;
55312;SDS011;46892;45.668;11.756;2023-05-24T05:59:12;7.57;;;4.93;;
55312;SDS011;46892;45.668;11.756;2023-05-24T06:01:39;9.35;;;5.68;;
55312;SDS011;46892;45.668;11.756;2023-05-24T06:04:06;9.13;;;5.40;;
55312;SDS011;46892;45.668;11.756;2023-05-24T06:06:31;7.10;;;4.80;;
55312;SDS011;46892;45.668;11.756;2023-05-24T06:08:58;7.10;;;4.87;;
55312;SDS011;46892;45.668;11.756;2023-05-24T06:11:24;8.57;;;4.63;;
55312;SDS011;46892;45.668;11.756;2023-05-24T06:13:51;7.37;;;4.87;;
55312;SDS011;46892;45.668;11.756;2023-05-24T06:16:17;7.63;;;4.60;;
55312;SDS011;46892;45.668;11.756;2023-05-24T06:18:44;7.60;;;4.43;;
55312;SDS011;46892;45.668;11.756;2023-05-24T06:21:10;6.43;;;4.33;;
55312;SDS011;46892;45.668;11.756;2023-05-24T06:23:36;7.27;;;4.63;;
55312;SDS011;46892;45.668;11.756;2023-05-24T06:26:02;5.97;;;4.47;;
55312;SDS011;46892;45.668;11.756;2023-05-24T06:28:28;7.13;;;4.83;;
55312;SDS011;46892;45.668;11.756;2023-05-24T06:30:53;7.17;;;4.47;;
55312;SDS011;46892;45.668;11.756;2023-05-24T06:33:19;5.73;;;4.00;;
55312;SDS011;46892;45.668;11.756;2023-05-24T06:35:46;8.27;;;4.70;;
55312;SDS011;46892;45.668;11.756;2023-05-24T06:38:12;5.67;;;4.17;;
55312;SDS011;46892;45.668;11.756;2023-05-24T06:40:38;6.47;;;4.70;;
55312;SDS011;46892;45.668;11.756;2023-05-24T06:43:03;8.87;;;4.83;;
55312;SDS011;46892;45.668;11.756;2023-05-24T06:45:29;6.30;;;4.57;;
55312;SDS011;46892;45.668;11.756;2023-05-24T06:47:55;9.20;;;5.13;;
55312;SDS011;46892;45.668;11.756;2023-05-24T06:50:21;10.00;;;5.37;;
55312;SDS011;46892;45.668;11.756;2023-05-24T06:52:47;8.20;;;4.97;;
55312;SDS011;46892;45.668;11.756;2023-05-24T06:55:13;6.60;;;4.10;;
55312;SDS011;46892;45.668;11.756;2023-05-24T06:57:39;9.33;;;4.40;;
55312;SDS011;46892;45.668;11.756;2023-05-24T07:00:05;7.23;;;4.63;;
55312;SDS011;46892;45.668;11.756;2023-05-24T07:02:36;9.33;;;4.83;;
55312;SDS011;46892;45.668;11.756;2023-05-24T07:05:06;7.25;;;4.25;;
55312;SDS011;46892;45.668;11.756;2023-05-24T07:07:38;5.93;;;4.30;;
55312;SDS011;46892;45.668;11.756;2023-05-24T07:10:08;7.47;;;4.70;;
55312;SDS011;46892;45.668;11.756;2023-05-24T07:12:35;13.60;;;4.80;;
55312;SDS011;46892;45.668;11.756;2023-05-24T07:15:02;6.77;;;4.23;;
55312;SDS011;46892;45.668;11.756;2023-05-24T07:17:28;6.30;;;4.37;;
55312;SDS011;46892;45.668;11.756;2023-05-24T07:19:54;7.47;;;4.77;;
55312;SDS011;46892;45.668;11.756;2023-05-24T07:22:21;7.00;;;4.07;;
55312;SDS011;46892;45.668;11.756;2023-05-24T07:24:48;7.70;;;4.30;;
55312;SDS011;46892;45.668;11.756;2023-05-24T07:27:14;6.80;;;3.73;;
55312;SDS011;46892;45.668;11.756;2023-05-24T07:29:39;8.03;;;3.60;;
55312;SDS011;46892;45.668;11.756;2023-05-24T07:32:05;4.77;;;3.20;;
55312;SDS011;46892;45.668;11.756;2023-05-24T07:34:31;5.40;;;3.50;;
55312;SDS011;46892;45.668;11.756;2023-05-24T07:36:57;5.73;;;4.07;;
55312;SDS011;46892;45.668;11.756;2023-05-24T07:39:24;8.37;;;4.57;;
55312;SDS011;46892;45.668;11.756;2023-05-24T07:41:51;7.13;;;4.60;;
55312;SDS011;46892;45.668;11.756;2023-05-24T07:44:18;10.90;;;4.87;;
55312;SDS011;46892;45.668;11.756;2023-05-24T07:46:43;7.37;;;4.37;;
55312;SDS011;46892;45.668;11.756;2023-05-24T07:49:09;7.30;;;4.60;;
55312;SDS011;46892;45.668;11.756;2023-05-24T07:51:35;6.53;;;4.57;;
55312;SDS011;46892;45.668;11.756;2023-05-24T07:54:02;9.00;;;6.20;;
55312;SDS011;46892;45.668;11.756;2023-05-24T07:56:27;10.23;;;6.67;;
55312;SDS011;46892;45.668;11.756;2023-05-24T07:58:54;14.00;;;6.93;;
55312;SDS011;46892;45.668;11.756;2023-05-24T08:01:27;9.47;;;6.70;;
55312;SDS011;46892;45.668;11.756;2023-05-24T08:03:53;9.37;;;6.83;;
55312;SDS011;46892;45.668;11.756;2023-05-24T08:06:20;9.10;;;7.10;;
55312;SDS011;46892;45.668;11.756;2023-05-24T08:08:46;14.07;;;7.13;;
55312;SDS011;46892;45.668;11.756;2023-05-24T08:11:12;15.93;;;6.47;;
55312;SDS011;46892;45.668;11.756;2023-05-24T08:13:38;12.37;;;7.27;;
55312;SDS011;46892;45.668;11.756;2023-05-24T08:16:03;9.83;;;7.27;;
55312;SDS011;46892;45.668;11.756;2023-05-24T08:18:29;8.93;;;6.60;;
55312;SDS011;46892;45.668;11.756;2023-05-24T08:20:55;8.70;;;6.80;;
55312;SDS011;46892;45.668;11.756;2023-05-24T08:23:21;10.43;;;7.20;;
55312;SDS011;46892;45.668;11.756;2023-05-24T08:25:47;9.23;;;7.27;;
55312;SDS011;46892;45.668;11.756;2023-05-24T08:28:12;12.87;;;7.87;;
55312;SDS011;46892;45.668;11.756;2023-05-24T08:30:38;8.47;;;6.33;;
55312;SDS011;46892;45.668;11.756;2023-05-24T08:33:04;12.60;;;6.17;;
55312;SDS011;46892;45.668;11.756;2023-05-24T08:35:29;15.77;;;6.80;;
55312;SDS011;46892;45.668;11.756;2023-05-24T08:37:55;9.50;;;6.37;;
55312;SDS011;46892;45.668;11.756;2023-05-24T08:40:21;9.97;;;5.77;;
55312;SDS011;46892;45.668;11.756;2023-05-24T08:42:49;8.83;;;6.10;;
55312;SDS011;46892;45.668;11.756;2023-05-24T08:45:16;8.07;;;5.97;;
55312;SDS011;46892;45.668;11.756;2023-05-24T08:47:43;10.67;;;5.77;;
55312;SDS011;46892;45.668;11.756;2023-05-24T08:50:11;8.80;;;5.63;;
55312;SDS011;46892;45.668;11.756;2023-05-24T08:52:37;7.80;;;4.47;;
55312;SDS011;46892;45.668;11.756;2023-05-24T08:55:04;8.77;;;5.33;;
55312;SDS011;46892;45.668;11.756;2023-05-24T08:57:31;7.93;;;5.73;;
55312;SDS011;46892;45.668;11.756;2023-05-24T08:59:58;11.03;;;6.00;;
55312;SDS011;46892;45.668;11.756;2023-05-24T09:02:24;9.40;;;5.43;;
55312;SDS011;46892;45.668;11.756;2023-05-24T09:04:51;7.93;;;5.40;;
55312;SDS011;46892;45.668;11.756;2023-05-24T09:07:18;7.37;;;5.63;;
55312;SDS011;46892;45.668;11.756;2023-05-24T09:09:49;9.37;;;5.73;;
55312;SDS011;46892;45.668;11.756;2023-05-24T09:12:21;8.77;;;5.93;;
55312;SDS011;46892;45.668;11.756;2023-05-24T09:14:48;8.20;;;6.00;;
55312;SDS011;46892;45.668;11.756;2023-05-24T09:17:14;11.57;;;5.50;;
55312;SDS011;46892;45.668;11.756;2023-05-24T09:19:44;7.90;;;5.77;;
55312;SDS011;46892;45.668;11.756;2023-05-24T09:22:13;9.15;;;5.88;;
55312;SDS011;46892;45.668;11.756;2023-05-24T09:24:41;8.13;;;5.63;;
55312;SDS011;46892;45.668;11.756;2023-05-24T09:27:07;7.83;;;5.10;;
55312;SDS011;46892;45.668;11.756;2023-05-24T09:29:36;9.20;;;5.40;;
55312;SDS011;46892;45.668;11.756;2023-05-24T09:32:03;12.80;;;5.30;;
55312;SDS011;46892;45.668;11.756;2023-05-24T09:34:41;6.83;;;5.27;;
55312;SDS011;46892;45.668;11.756;2023-05-24T09:37:17;10.23;;;5.60;;
55312;SDS011;46892;45.668;11.756;2023-05-24T09:39:45;7.50;;;5.87;;
55312;SDS011;46892;45.668;11.756;2023-05-24T09:42:15;7.57;;;5.43;;
55312;SDS011;46892;45.668;11.756;2023-05-24T09:44:45;8.97;;;6.90;;
55312;SDS011;46892;45.668;11.756;2023-05-24T09:47:11;8.57;;;5.97;;
55312;SDS011;46892;45.668;11.756;2023-05-24T09:49:38;12.20;;;5.70;;
55312;SDS011;46892;45.668;11.756;2023-05-24T09:52:04;11.03;;;5.97;;
55312;SDS011;46892;45.668;11.756;2023-05-24T09:54:31;6.97;;;5.70;;
55312;SDS011;46892;45.668;11.756;2023-05-24T09:57:00;8.48;;;6.15;;
55312;SDS011;46892;45.668;11.756;2023-05-24T09:59:28;9.10;;;6.07;;
55312;SDS011;46892;45.668;11.756;2023-05-24T10:04:36;7.80;;;5.90;;
55312;SDS011;46892;45.668;11.756;2023-05-24T10:07:05;7.83;;;5.77;;
55312;SDS011;46892;45.668;11.756;2023-05-24T10:09:32;9.87;;;5.87;;
55312;SDS011;46892;45.668;11.756;2023-05-24T10:12:03;8.07;;;5.50;;
55312;SDS011;46892;45.668;11.756;2023-05-24T10:14:33;7.87;;;5.47;;
55312;SDS011;46892;45.668;11.756;2023-05-24T10:17:04;8.63;;;5.60;;
55312;SDS011;46892;45.668;11.756;2023-05-24T10:21:57;8.40;;;4.53;;
55312;SDS011;46892;45.668;11.756;2023-05-24T10:24:25;6.37;;;4.40;;
55312;SDS011;46892;45.668;11.756;2023-05-24T10:26:54;8.03;;;4.97;;
55312;SDS011;46892;45.668;11.756;2023-05-24T10:29:46;6.60;;;4.70;;
55312;SDS011;46892;45.668;11.756;2023-05-24T10:32:16;10.23;;;5.27;;
55312;SDS011;46892;45.668;11.756;2023-05-24T10:34:43;6.70;;;4.67;;
55312;SDS011;46892;45.668;11.756;2023-05-24T10:37:10;8.23;;;4.40;;
55312;SDS011;46892;45.668;11.756;2023-05-24T10:39:36;6.90;;;4.53;;
55312;SDS011;46892;45.668;11.756;2023-05-24T10:42:05;7.00;;;5.20;;
55312;SDS011;46892;45.668;11.756;2023-05-24T10:44:31;7.53;;;5.03;;
55312;SDS011;46892;45.668;11.756;2023-05-24T10:47:01;6.73;;;5.10;;
55312;SDS011;46892;45.668;11.756;2023-05-24T10:49:30;10.40;;;5.73;;
55312;SDS011;46892;45.668;11.756;2023-05-24T10:51:59;7.03;;;5.43;;
55312;SDS011;46892;45.668;11.756;2023-05-24T10:54:26;5.30;;;4.23;;
55312;SDS011;46892;45.668;11.756;2023-05-24T10:56:52;5.43;;;4.10;;
55312;SDS011;46892;45.668;11.756;2023-05-24T10:59:21;7.83;;;5.67;;
55312;SDS011;46892;45.668;11.756;2023-05-24T11:02:07;9.03;;;5.73;;
55312;SDS011;46892;45.668;11.756;2023-05-24T11:04:38;9.20;;;5.90;;
55312;SDS011;46892;45.668;11.756;2023-05-24T11:07:06;7.27;;;5.47;;
55312;SDS011;46892;45.668;11.756;2023-05-24T11:09:33;8.77;;;5.77;;
55312;SDS011;46892;45.668;11.756;2023-05-24T11:12:10;8.40;;;5.80;;
55312;SDS011;46892;45.668;11.756;2023-05-24T11:14:40;19.27;;;5.63;;
55312;SDS011;46892;45.668;11.756;2023-05-24T11:17:10;17.70;;;5.60;;
55312;SDS011;46892;45.668;11.756;2023-05-24T11:19:37;10.15;;;6.05;;
55312;SDS011;46892;45.668;11.756;2023-05-24T11:22:09;7.07;;;5.07;;
55312;SDS011;46892;45.668;11.756;2023-05-24T11:24:37;7.57;;;5.90;;
55312;SDS011;46892;45.668;11.756;2023-05-24T11:27:04;9.00;;;5.87;;
55312;SDS011;46892;45.668;11.756;2023-05-24T11:29:30;8.00;;;5.77;;
55312;SDS011;46892;45.668;11.756;2023-05-24T11:31:57;7.30;;;5.80;;
55312;SDS011;46892;45.668;11.756;2023-05-24T11:34:28;9.90;;;5.93;;
55312;SDS011;46892;45.668;11.756;2023-05-24T11:36:56;6.95;;;5.45;;
55312;SDS011;46892;45.668;11.756;2023-05-24T11:39:23;6.63;;;5.20;;
55312;SDS011;46892;45.668;11.756;2023-05-24T11:41:52;6.85;;;5.15;;
55312;SDS011;46892;45.668;11.756;2023-05-24T11:44:18;9.07;;;5.90;;
55312;SDS011;46892;45.668;11.756;2023-05-24T11:46:44;7.73;;;5.20;;
55312;SDS011;46892;45.668;11.756;2023-05-24T11:49:11;7.80;;;5.70;;
55312;SDS011;46892;45.668;11.756;2023-05-24T11:51:41;8.63;;;5.50;;
55312;SDS011;46892;45.668;11.756;2023-05-24T11:54:07;7.23;;;5.07;;
55312;SDS011;46892;45.668;11.756;2023-05-24T11:56:33;12.88;;;5.10;;
55312;SDS011;46892;45.668;11.756;2023-05-24T11:59:21;6.75;;;5.07;;
55312;SDS011;46892;45.668;11.756;2023-05-24T12:01:50;7.83;;;5.30;;
55312;SDS011;46892;45.668;11.756;2023-05-24T12:04:23;6.78;;;5.35;;
55312;SDS011;46892;45.668;11.756;2023-05-24T12:06:48;7.38;;;5.18;;
55312;SDS011;46892;45.668;11.756;2023-05-24T12:09:14;6.97;;;5.17;;
55312;SDS011;46892;45.668;11.756;2023-05-24T12:11:42;10.13;;;5.20;;
55312;SDS011;46892;45.668;11.756;2023-05-24T12:14:13;6.70;;;5.00;;
55312;SDS011;46892;45.668;11.756;2023-05-24T12:16:42;7.30;;;5.27;;
55312;SDS011;46892;45.668;11.756;2023-05-24T12:19:19;6.78;;;5.32;;
55312;SDS011;46892;45.668;11.756;2023-05-24T12:21:45;6.93;;;4.83;;
55312;SDS011;46892;45.668;11.756;2023-05-24T12:24:13;9.32;;;5.50;;
55312;SDS011;46892;45.668;11.756;2023-05-24T12:26:41;7.93;;;5.20;;
55312;SDS011;46892;45.668;11.756;2023-05-24T12:29:08;6.72;;;4.97;;
55312;SDS011;46892;45.668;11.756;2023-05-24T12:31:40;6.90;;;5.43;;
55312;SDS011;46892;45.668;11.756;2023-05-24T12:34:11;7.05;;;5.22;;
55312;SDS011;46892;45.668;11.756;2023-05-24T12:36:37;8.15;;;5.32;;
55312;SDS011;46892;45.668;11.756;2023-05-24T12:39:04;7.18;;;4.88;;
55312;SDS011;46892;45.668;11.756;2023-05-24T12:41:52;7.20;;;4.90;;
55312;SDS011;46892;45.668;11.756;2023-05-24T12:46:55;9.40;;;5.53;;
55312;SDS011;46892;45.668;11.756;2023-05-24T12:49:22;7.03;;;4.75;;
55312;SDS011;46892;45.668;11.756;2023-05-24T12:51:48;7.10;;;4.53;;
55312;SDS011;46892;45.668;11.756;2023-05-24T12:54:16;5.50;;;4.30;;
55312;SDS011;46892;45.668;11.756;2023-05-24T12:56:43;7.68;;;5.35;;
55312;SDS011;46892;45.668;11.756;2023-05-24T12:59:09;8.45;;;5.53;;
55312;SDS011;46892;45.668;11.756;2023-05-24T13:01:35;7.28;;;4.57;;
55312;SDS011;46892;45.668;11.756;2023-05-24T13:04:00;5.38;;;4.45;;
55312;SDS011;46892;45.668;11.756;2023-05-24T13:06:26;7.82;;;5.15;;
55312;SDS011;46892;45.668;11.756;2023-05-24T13:08:52;6.60;;;4.63;;
55312;SDS011;46892;45.668;11.756;2023-05-24T13:11:17;5.97;;;5.00;;
55312;SDS011;46892;45.668;11.756;2023-05-24T13:13:43;6.75;;;4.68;;
55312;SDS011;46892;45.668;11.756;2023-05-24T13:16:10;6.30;;;4.77;;
55312;SDS011;46892;45.668;11.756;2023-05-24T13:18:36;7.57;;;5.03;;
55312;SDS011;46892;45.668;11.756;2023-05-24T13:21:02;6.97;;;4.53;;
55312;SDS011;46892;45.668;11.756;2023-05-24T13:23:32;7.03;;;4.97;;
55312;SDS011;46892;45.668;11.756;2023-05-24T13:26:00;8.20;;;5.13;;
55312;SDS011;46892;45.668;11.756;2023-05-24T13:28:26;6.30;;;5.30;;
55312;SDS011;46892;45.668;11.756;2023-05-24T13:30:53;6.80;;;4.70;;
55312;SDS011;46892;45.668;11.756;2023-05-24T13:33:19;10.17;;;5.90;;
55312;SDS011;46892;45.668;11.756;2023-05-24T13:35:44;6.95;;;5.40;;
55312;SDS011;46892;45.668;11.756;2023-05-24T13:38:10;6.83;;;5.13;;
55312;SDS011;46892;45.668;11.756;2023-05-24T13:40:36;6.70;;;5.05;;
55312;SDS011;46892;45.668;11.756;2023-05-24T13:43:03;11.35;;;4.90;;
55312;SDS011;46892;45.668;11.756;2023-05-24T13:45:29;7.35;;;4.70;;
55312;SDS011;46892;45.668;11.756;2023-05-24T13:47:57;7.87;;;5.40;;
55312;SDS011;46892;45.668;11.756;2023-05-24T13:50:28;7.28;;;5.35;;
55312;SDS011;46892;45.668;11.756;2023-05-24T13:52:56;8.18;;;5.47;;
55312;SDS011;46892;45.668;11.756;2023-05-24T13:55:22;8.47;;;5.70;;
55312;SDS011;46892;45.668;11.756;2023-05-24T13:57:48;10.83;;;5.37;;
55312;SDS011;46892;45.668;11.756;2023-05-24T14:00:14;9.43;;;5.73;;
55312;SDS011;46892;45.668;11.756;2023-05-24T14:02:41;6.65;;;5.13;;
55312;SDS011;46892;45.668;11.756;2023-05-24T14:05:07;9.20;;;5.28;;
55312;SDS011;46892;45.668;11.756;2023-05-24T14:07:33;7.40;;;4.88;;
55312;SDS011;46892;45.668;11.756;2023-05-24T14:09:59;7.78;;;5.40;;
55312;SDS011;46892;45.668;11.756;2023-05-24T14:12:25;9.13;;;5.17;;
55312;SDS011;46892;45.668;11.756;2023-05-24T14:14:51;6.45;;;5.00;;
55312;SDS011;46892;45.668;11.756;2023-05-24T14:17:17;8.43;;;5.72;;
55312;SDS011;46892;45.668;11.756;2023-05-24T14:19:42;7.47;;;5.10;;
55312;SDS011;46892;45.668;11.756;2023-05-24T14:22:08;7.68;;;5.00;;
55312;SDS011;46892;45.668;11.756;2023-05-24T14:24:33;7.00;;;5.25;;
55312;SDS011;46892;45.668;11.756;2023-05-24T14:26:59;7.57;;;5.30;;
55312;SDS011;46892;45.668;11.756;2023-05-24T14:29:25;8.80;;;5.70;;
55312;SDS011;46892;45.668;11.756;2023-05-24T14:31:51;7.30;;;4.88;;
55312;SDS011;46892;45.668;11.756;2023-05-24T14:34:17;8.10;;;5.38;;
55312;SDS011;46892;45.668;11.756;2023-05-24T14:36:43;7.23;;;5.27;;
55312;SDS011;46892;45.668;11.756;2023-05-24T14:39:09;7.65;;;4.90;;
55312;SDS011;46892;45.668;11.756;2023-05-24T14:41:35;6.60;;;5.00;;
55312;SDS011;46892;45.668;11.756;2023-05-24T14:44:01;8.25;;;5.22;;
55312;SDS011;46892;45.668;11.756;2023-05-24T14:46:26;6.47;;;5.10;;
55312;SDS011;46892;45.668;11.756;2023-05-24T14:48:52;7.83;;;5.30;;
55312;SDS011;46892;45.668;11.756;2023-05-24T14:51:18;8.07;;;4.97;;
55312;SDS011;46892;45.668;11.756;2023-05-24T14:53:43;6.03;;;4.50;;
55312;SDS011;46892;45.668;11.756;2023-05-24T14:56:09;9.88;;;5.25;;
55312;SDS011;46892;45.668;11.756;2023-05-24T14:58:37;7.38;;;5.32;;
55312;SDS011;46892;45.668;11.756;2023-05-24T15:01:04;8.10;;;5.43;;
55312;SDS011;46892;45.668;11.756;2023-05-24T15:03:30;11.32;;;5.20;;